sensor_id;sensor_type;location;lat;lon;timestamp;P1;durP1;ratioP1;P2;durP2;ratioP2
27632;SDS011;15046;50.930;13.334;2023-12-20T00:01:38;10.27;;;5.60;;
27632;SDS011;15046;50.930;13.334;2023-12-20T00:04:04;10.55;;;6.30;;
27632;SDS011;15046;50.930;13.334;2023-12-20T00:06:30;10.02;;;6.13;;
27632;SDS011;15046;50.930;13.334;2023-12-20T00:08:56;10.18;;;5.97;;
27632;SDS011;15046;50.930;13.334;2023-12-20T00:11:23;9.98;;;5.20;;
27632;SDS011;15046;50.930;13.334;2023-12-20T00:13:49;8.82;;;5.65;;
27632;SDS011;15046;50.930;13.334;2023-12-20T00:16:15;9.35;;;6.07;;
27632;SDS011;15046;50.930;13.334;2023-12-20T00:18:41;10.20;;;6.10;;
27632;SDS011;15046;50.930;13.334;2023-12-20T00:21:07;9.00;;;5.75;;
27632;SDS011;15046;50.930;13.334;2023-12-20T00:23:32;9.02;;;5.30;;
27632;SDS011;15046;50.930;13.334;2023-12-20T00:25:58;8.73;;;5.43;;
27632;SDS011;15046;50.930;13.334;2023-12-20T00:28:24;10.50;;;5.50;;
27632;SDS011;15046;50.930;13.334;2023-12-20T00:30:50;8.48;;;5.63;;
27632;SDS011;15046;50.930;13.334;2023-12-20T00:33:16;8.80;;;5.03;;
27632;SDS011;15046;50.930;13.334;2023-12-20T00:35:42;7.28;;;4.70;;
27632;SDS011;15046;50.930;13.334;2023-12-20T00:38:08;6.78;;;3.72;;
27632;SDS011;15046;50.930;13.334;2023-12-20T00:40:35;9.13;;;4.90;;
27632;SDS011;15046;50.930;13.334;2023-12-20T00:43:00;8.07;;;4.38;;
27632;SDS011;15046;50.930;13.334;2023-12-20T00:45:26;9.02;;;4.60;;
27632;SDS011;15046;50.930;13.334;2023-12-20T00:47:52;9.35;;;5.32;;
27632;SDS011;15046;50.930;13.334;2023-12-20T00:50:18;7.47;;;4.15;;
27632;SDS011;15046;50.930;13.334;2023-12-20T00:52:44;6.97;;;4.05;;
27632;SDS011;15046;50.930;13.334;2023-12-20T00:55:11;5.97;;;3.85;;
27632;SDS011;15046;50.930;13.334;2023-12-20T00:57:37;7.00;;;3.85;;
27632;SDS011;15046;50.930;13.334;2023-12-20T01:00:02;6.13;;;3.67;;
27632;SDS011;15046;50.930;13.334;2023-12-20T01:02:29;6.03;;;3.10;;
27632;SDS011;15046;50.930;13.334;2023-12-20T01:04:55;5.97;;;3.58;;
27632;SDS011;15046;50.930;13.334;2023-12-20T01:07:20;7.97;;;4.20;;
27632;SDS011;15046;50.930;13.334;2023-12-20T01:09:46;7.40;;;4.18;;
27632;SDS011;15046;50.930;13.334;2023-12-20T01:12:12;5.82;;;3.30;;
27632;SDS011;15046;50.930;13.334;2023-12-20T01:14:38;5.55;;;3.22;;
27632;SDS011;15046;50.930;13.334;2023-12-20T01:17:04;5.88;;;3.72;;
27632;SDS011;15046;50.930;13.334;2023-12-20T01:19:30;7.05;;;4.13;;
27632;SDS011;15046;50.930;13.334;2023-12-20T01:21:56;6.05;;;3.40;;
27632;SDS011;15046;50.930;13.334;2023-12-20T01:24:22;5.55;;;3.42;;
27632;SDS011;15046;50.930;13.334;2023-12-20T01:26:48;4.90;;;3.10;;
27632;SDS011;15046;50.930;13.334;2023-12-20T01:29:14;5.97;;;3.05;;
27632;SDS011;15046;50.930;13.334;2023-12-20T01:31:41;5.45;;;3.10;;
27632;SDS011;15046;50.930;13.334;2023-12-20T01:34:07;5.47;;;3.28;;
27632;SDS011;15046;50.930;13.334;2023-12-20T01:36:33;6.35;;;3.30;;
27632;SDS011;15046;50.930;13.334;2023-12-20T01:38:59;6.80;;;3.15;;
27632;SDS011;15046;50.930;13.334;2023-12-20T01:41:24;4.88;;;2.95;;
27632;SDS011;15046;50.930;13.334;2023-12-20T01:43:50;6.20;;;3.13;;
27632;SDS011;15046;50.930;13.334;2023-12-20T01:46:19;6.70;;;3.22;;
27632;SDS011;15046;50.930;13.334;2023-12-20T01:48:46;6.20;;;3.35;;
27632;SDS011;15046;50.930;13.334;2023-12-20T01:51:13;4.88;;;2.28;;
27632;SDS011;15046;50.930;13.334;2023-12-20T01:53:39;5.45;;;2.65;;
27632;SDS011;15046;50.930;13.334;2023-12-20T01:56:06;3.95;;;2.42;;
27632;SDS011;15046;50.930;13.334;2023-12-20T01:58:33;4.32;;;2.70;;
27632;SDS011;15046;50.930;13.334;2023-12-20T02:01:02;4.57;;;2.47;;
27632;SDS011;15046;50.930;13.334;2023-12-20T02:03:28;5.10;;;3.08;;
27632;SDS011;15046;50.930;13.334;2023-12-20T02:05:54;6.18;;;2.78;;
27632;SDS011;15046;50.930;13.334;2023-12-20T02:08:20;4.40;;;2.60;;
27632;SDS011;15046;50.930;13.334;2023-12-20T02:10:46;4.47;;;2.40;;
27632;SDS011;15046;50.930;13.334;2023-12-20T02:13:12;4.07;;;2.42;;
27632;SDS011;15046;50.930;13.334;2023-12-20T02:15:38;4.15;;;2.35;;
27632;SDS011;15046;50.930;13.334;2023-12-20T02:18:06;4.85;;;2.80;;
27632;SDS011;15046;50.930;13.334;2023-12-20T02:20:32;4.22;;;2.25;;
27632;SDS011;15046;50.930;13.334;2023-12-20T02:22:58;4.22;;;2.47;;
27632;SDS011;15046;50.930;13.334;2023-12-20T02:25:24;4.18;;;2.30;;
27632;SDS011;15046;50.930;13.334;2023-12-20T02:27:50;4.03;;;2.20;;
27632;SDS011;15046;50.930;13.334;2023-12-20T02:30:16;4.03;;;2.30;;
27632;SDS011;15046;50.930;13.334;2023-12-20T02:32:42;4.28;;;2.30;;
27632;SDS011;15046;50.930;13.334;2023-12-20T02:35:08;3.38;;;2.03;;
27632;SDS011;15046;50.930;13.334;2023-12-20T02:37:34;3.50;;;2.17;;
27632;SDS011;15046;50.930;13.334;2023-12-20T02:40:00;3.35;;;2.20;;
27632;SDS011;15046;50.930;13.334;2023-12-20T02:42:26;3.08;;;1.98;;
27632;SDS011;15046;50.930;13.334;2023-12-20T02:44:52;3.10;;;1.70;;
27632;SDS011;15046;50.930;13.334;2023-12-20T02:47:17;3.40;;;1.52;;
27632;SDS011;15046;50.930;13.334;2023-12-20T02:49:43;2.95;;;1.80;;
27632;SDS011;15046;50.930;13.334;2023-12-20T02:52:09;3.53;;;2.00;;
27632;SDS011;15046;50.930;13.334;2023-12-20T02:54:35;3.42;;;1.88;;
27632;SDS011;15046;50.930;13.334;2023-12-20T02:57:01;4.15;;;2.00;;
27632;SDS011;15046;50.930;13.334;2023-12-20T02:59:27;3.08;;;1.77;;
27632;SDS011;15046;50.930;13.334;2023-12-20T03:01:53;3.13;;;2.08;;
27632;SDS011;15046;50.930;13.334;2023-12-20T03:04:19;3.60;;;2.17;;
27632;SDS011;15046;50.930;13.334;2023-12-20T03:06:45;2.65;;;1.60;;
27632;SDS011;15046;50.930;13.334;2023-12-20T03:09:11;4.82;;;1.98;;
27632;SDS011;15046;50.930;13.334;2023-12-20T03:11:37;3.42;;;2.00;;
27632;SDS011;15046;50.930;13.334;2023-12-20T03:14:03;3.20;;;1.88;;
27632;SDS011;15046;50.930;13.334;2023-12-20T03:16:29;2.70;;;1.60;;
27632;SDS011;15046;50.930;13.334;2023-12-20T03:18:56;2.92;;;1.58;;
27632;SDS011;15046;50.930;13.334;2023-12-20T03:21:22;3.75;;;1.80;;
27632;SDS011;15046;50.930;13.334;2023-12-20T03:23:49;3.25;;;1.80;;
27632;SDS011;15046;50.930;13.334;2023-12-20T03:26:16;3.15;;;1.70;;
27632;SDS011;15046;50.930;13.334;2023-12-20T03:28:42;3.30;;;1.70;;
27632;SDS011;15046;50.930;13.334;2023-12-20T03:31:09;3.20;;;1.85;;
27632;SDS011;15046;50.930;13.334;2023-12-20T03:33:35;3.30;;;1.63;;
27632;SDS011;15046;50.930;13.334;2023-12-20T03:36:01;2.65;;;1.45;;
27632;SDS011;15046;50.930;13.334;2023-12-20T03:38:27;2.35;;;1.60;;
27632;SDS011;15046;50.930;13.334;2023-12-20T03:40:53;2.35;;;1.17;;
27632;SDS011;15046;50.930;13.334;2023-12-20T03:43:19;2.83;;;1.70;;
27632;SDS011;15046;50.930;13.334;2023-12-20T03:45:45;3.00;;;1.63;;
27632;SDS011;15046;50.930;13.334;2023-12-20T03:48:11;2.72;;;1.67;;
27632;SDS011;15046;50.930;13.334;2023-12-20T03:50:37;2.53;;;1.58;;
27632;SDS011;15046;50.930;13.334;2023-12-20T03:53:03;2.65;;;1.45;;
27632;SDS011;15046;50.930;13.334;2023-12-20T03:55:30;2.40;;;1.27;;
27632;SDS011;15046;50.930;13.334;2023-12-20T03:57:57;5.88;;;2.28;;
27632;SDS011;15046;50.930;13.334;2023-12-20T04:00:23;3.22;;;1.67;;
27632;SDS011;15046;50.930;13.334;2023-12-20T04:02:49;3.45;;;1.60;;
27632;SDS011;15046;50.930;13.334;2023-12-20T04:05:15;2.45;;;1.52;;
27632;SDS011;15046;50.930;13.334;2023-12-20T04:07:41;2.88;;;1.75;;
27632;SDS011;15046;50.930;13.334;2023-12-20T04:10:07;4.00;;;2.10;;
27632;SDS011;15046;50.930;13.334;2023-12-20T04:12:33;3.55;;;2.10;;
27632;SDS011;15046;50.930;13.334;2023-12-20T04:14:59;4.50;;;2.35;;
27632;SDS011;15046;50.930;13.334;2023-12-20T04:17:25;3.67;;;2.13;;
27632;SDS011;15046;50.930;13.334;2023-12-20T04:19:51;3.33;;;2.03;;
27632;SDS011;15046;50.930;13.334;2023-12-20T04:22:17;3.55;;;2.00;;
27632;SDS011;15046;50.930;13.334;2023-12-20T04:24:44;3.38;;;2.10;;
27632;SDS011;15046;50.930;13.334;2023-12-20T04:27:10;3.38;;;2.10;;
27632;SDS011;15046;50.930;13.334;2023-12-20T04:29:37;4.03;;;2.35;;
27632;SDS011;15046;50.930;13.334;2023-12-20T04:32:03;4.10;;;2.15;;
27632;SDS011;15046;50.930;13.334;2023-12-20T04:34:30;3.53;;;2.22;;
27632;SDS011;15046;50.930;13.334;2023-12-20T04:36:55;3.22;;;2.03;;
27632;SDS011;15046;50.930;13.334;2023-12-20T04:39:21;14.52;;;5.78;;
27632;SDS011;15046;50.930;13.334;2023-12-20T04:41:47;13.40;;;5.47;;
27632;SDS011;15046;50.930;13.334;2023-12-20T04:44:13;3.95;;;2.08;;
27632;SDS011;15046;50.930;13.334;2023-12-20T04:46:39;3.58;;;2.30;;
27632;SDS011;15046;50.930;13.334;2023-12-20T04:49:05;3.42;;;2.20;;
27632;SDS011;15046;50.930;13.334;2023-12-20T04:51:34;5.28;;;2.92;;
27632;SDS011;15046;50.930;13.334;2023-12-20T04:54:01;5.22;;;2.42;;
27632;SDS011;15046;50.930;13.334;2023-12-20T04:56:27;4.28;;;2.40;;
27632;SDS011;15046;50.930;13.334;2023-12-20T04:58:53;4.80;;;2.60;;
27632;SDS011;15046;50.930;13.334;2023-12-20T05:01:19;4.97;;;2.78;;
27632;SDS011;15046;50.930;13.334;2023-12-20T05:03:47;6.55;;;3.20;;
27632;SDS011;15046;50.930;13.334;2023-12-20T05:06:13;5.97;;;3.22;;
27632;SDS011;15046;50.930;13.334;2023-12-20T05:08:40;9.20;;;4.53;;
27632;SDS011;15046;50.930;13.334;2023-12-20T05:11:06;23.90;;;9.15;;
27632;SDS011;15046;50.930;13.334;2023-12-20T05:13:32;35.42;;;13.23;;
27632;SDS011;15046;50.930;13.334;2023-12-20T05:15:58;54.25;;;20.70;;
27632;SDS011;15046;50.930;13.334;2023-12-20T05:18:25;12.13;;;6.43;;
27632;SDS011;15046;50.930;13.334;2023-12-20T05:20:51;3.75;;;2.00;;
27632;SDS011;15046;50.930;13.334;2023-12-20T05:23:17;4.18;;;2.40;;
27632;SDS011;15046;50.930;13.334;2023-12-20T05:25:43;3.28;;;1.80;;
27632;SDS011;15046;50.930;13.334;2023-12-20T05:28:09;3.70;;;2.13;;
27632;SDS011;15046;50.930;13.334;2023-12-20T05:30:35;4.43;;;2.20;;
27632;SDS011;15046;50.930;13.334;2023-12-20T05:33:01;3.75;;;2.00;;
27632;SDS011;15046;50.930;13.334;2023-12-20T05:35:26;5.72;;;2.25;;
27632;SDS011;15046;50.930;13.334;2023-12-20T05:37:52;3.58;;;2.13;;
27632;SDS011;15046;50.930;13.334;2023-12-20T05:40:18;3.13;;;1.90;;
27632;SDS011;15046;50.930;13.334;2023-12-20T05:42:44;3.50;;;2.13;;
27632;SDS011;15046;50.930;13.334;2023-12-20T05:45:10;3.78;;;2.10;;
27632;SDS011;15046;50.930;13.334;2023-12-20T05:47:36;3.95;;;1.90;;
27632;SDS011;15046;50.930;13.334;2023-12-20T05:50:02;3.47;;;1.98;;
27632;SDS011;15046;50.930;13.334;2023-12-20T05:52:29;3.55;;;2.25;;
27632;SDS011;15046;50.930;13.334;2023-12-20T05:54:55;3.72;;;1.95;;
27632;SDS011;15046;50.930;13.334;2023-12-20T05:57:23;3.83;;;2.20;;
27632;SDS011;15046;50.930;13.334;2023-12-20T05:59:48;3.05;;;1.70;;
27632;SDS011;15046;50.930;13.334;2023-12-20T06:02:14;4.80;;;2.13;;
27632;SDS011;15046;50.930;13.334;2023-12-20T06:04:44;2.88;;;1.50;;
27632;SDS011;15046;50.930;13.334;2023-12-20T06:07:13;3.22;;;1.90;;
27632;SDS011;15046;50.930;13.334;2023-12-20T06:09:39;4.38;;;2.60;;
27632;SDS011;15046;50.930;13.334;2023-12-20T06:12:06;4.05;;;2.30;;
27632;SDS011;15046;50.930;13.334;2023-12-20T06:14:33;5.75;;;2.30;;
27632;SDS011;15046;50.930;13.334;2023-12-20T06:17:00;3.25;;;1.80;;
27632;SDS011;15046;50.930;13.334;2023-12-20T06:19:28;3.65;;;1.77;;
27632;SDS011;15046;50.930;13.334;2023-12-20T06:21:54;3.20;;;1.80;;
27632;SDS011;15046;50.930;13.334;2023-12-20T06:24:20;3.15;;;1.77;;
27632;SDS011;15046;50.930;13.334;2023-12-20T06:26:46;3.55;;;1.65;;
27632;SDS011;15046;50.930;13.334;2023-12-20T06:29:18;5.18;;;1.90;;
27632;SDS011;15046;50.930;13.334;2023-12-20T06:31:44;4.20;;;2.25;;
27632;SDS011;15046;50.930;13.334;2023-12-20T06:34:10;7.18;;;2.95;;
27632;SDS011;15046;50.930;13.334;2023-12-20T06:36:36;5.63;;;3.40;;
27632;SDS011;15046;50.930;13.334;2023-12-20T06:39:03;6.18;;;3.78;;
27632;SDS011;15046;50.930;13.334;2023-12-20T06:41:30;8.18;;;4.50;;
27632;SDS011;15046;50.930;13.334;2023-12-20T06:43:55;7.53;;;5.10;;
27632;SDS011;15046;50.930;13.334;2023-12-20T06:46:21;8.13;;;5.45;;
27632;SDS011;15046;50.930;13.334;2023-12-20T06:48:47;8.48;;;5.53;;
27632;SDS011;15046;50.930;13.334;2023-12-20T06:51:16;8.85;;;6.05;;
27632;SDS011;15046;50.930;13.334;2023-12-20T06:53:44;9.15;;;5.80;;
27632;SDS011;15046;50.930;13.334;2023-12-20T06:56:10;8.68;;;5.35;;
27632;SDS011;15046;50.930;13.334;2023-12-20T06:58:37;8.85;;;6.15;;
27632;SDS011;15046;50.930;13.334;2023-12-20T07:01:03;8.07;;;5.57;;
27632;SDS011;15046;50.930;13.334;2023-12-20T07:03:30;9.02;;;6.38;;
27632;SDS011;15046;50.930;13.334;2023-12-20T07:05:56;10.38;;;6.45;;
27632;SDS011;15046;50.930;13.334;2023-12-20T07:08:22;9.00;;;6.20;;
27632;SDS011;15046;50.930;13.334;2023-12-20T07:10:48;11.18;;;7.25;;
27632;SDS011;15046;50.930;13.334;2023-12-20T07:13:14;8.85;;;5.93;;
27632;SDS011;15046;50.930;13.334;2023-12-20T07:15:40;10.30;;;6.60;;
27632;SDS011;15046;50.930;13.334;2023-12-20T07:18:06;11.38;;;6.97;;
27632;SDS011;15046;50.930;13.334;2023-12-20T07:20:33;9.95;;;6.10;;
27632;SDS011;15046;50.930;13.334;2023-12-20T07:22:59;9.32;;;5.60;;
27632;SDS011;15046;50.930;13.334;2023-12-20T07:25:25;8.93;;;5.13;;
27632;SDS011;15046;50.930;13.334;2023-12-20T07:27:51;9.13;;;5.40;;
27632;SDS011;15046;50.930;13.334;2023-12-20T07:30:17;10.32;;;5.40;;
27632;SDS011;15046;50.930;13.334;2023-12-20T07:32:43;11.48;;;5.05;;
27632;SDS011;15046;50.930;13.334;2023-12-20T07:35:09;6.20;;;3.88;;
27632;SDS011;15046;50.930;13.334;2023-12-20T07:37:35;6.05;;;3.80;;
27632;SDS011;15046;50.930;13.334;2023-12-20T07:40:01;6.82;;;3.90;;
27632;SDS011;15046;50.930;13.334;2023-12-20T07:42:26;7.38;;;4.15;;
27632;SDS011;15046;50.930;13.334;2023-12-20T07:44:52;6.97;;;3.92;;
27632;SDS011;15046;50.930;13.334;2023-12-20T07:47:18;8.48;;;3.67;;
27632;SDS011;15046;50.930;13.334;2023-12-20T07:49:47;8.90;;;4.13;;
27632;SDS011;15046;50.930;13.334;2023-12-20T07:52:14;8.95;;;4.57;;
27632;SDS011;15046;50.930;13.334;2023-12-20T07:54:39;7.28;;;4.13;;
27632;SDS011;15046;50.930;13.334;2023-12-20T07:57:05;8.95;;;4.10;;
27632;SDS011;15046;50.930;13.334;2023-12-20T07:59:31;9.20;;;4.35;;
27632;SDS011;15046;50.930;13.334;2023-12-20T08:01:57;6.40;;;3.42;;
27632;SDS011;15046;50.930;13.334;2023-12-20T08:04:23;8.57;;;4.40;;
27632;SDS011;15046;50.930;13.334;2023-12-20T08:06:50;6.28;;;3.40;;
27632;SDS011;15046;50.930;13.334;2023-12-20T08:09:16;8.90;;;3.80;;
27632;SDS011;15046;50.930;13.334;2023-12-20T08:11:48;7.40;;;3.22;;
27632;SDS011;15046;50.930;13.334;2023-12-20T08:14:14;6.13;;;3.10;;
27632;SDS011;15046;50.930;13.334;2023-12-20T08:16:41;7.72;;;2.67;;
27632;SDS011;15046;50.930;13.334;2023-12-20T08:19:07;9.90;;;2.63;;
27632;SDS011;15046;50.930;13.334;2023-12-20T08:21:33;5.63;;;2.42;;
27632;SDS011;15046;50.930;13.334;2023-12-20T08:23:59;6.10;;;2.30;;
27632;SDS011;15046;50.930;13.334;2023-12-20T08:26:28;4.70;;;2.13;;
27632;SDS011;15046;50.930;13.334;2023-12-20T08:28:54;8.98;;;3.08;;
27632;SDS011;15046;50.930;13.334;2023-12-20T08:31:19;8.68;;;2.65;;
27632;SDS011;15046;50.930;13.334;2023-12-20T08:33:47;7.90;;;2.70;;
27632;SDS011;15046;50.930;13.334;2023-12-20T08:36:13;6.97;;;2.60;;
27632;SDS011;15046;50.930;13.334;2023-12-20T08:38:40;9.90;;;2.53;;
27632;SDS011;15046;50.930;13.334;2023-12-20T08:41:06;6.75;;;2.80;;
27632;SDS011;15046;50.930;13.334;2023-12-20T08:43:33;4.68;;;2.65;;
27632;SDS011;15046;50.930;13.334;2023-12-20T08:46:00;9.85;;;2.10;;
27632;SDS011;15046;50.930;13.334;2023-12-20T08:48:26;6.25;;;2.30;;
27632;SDS011;15046;50.930;13.334;2023-12-20T08:50:53;7.78;;;2.28;;
27632;SDS011;15046;50.930;13.334;2023-12-20T08:53:19;5.45;;;2.38;;
27632;SDS011;15046;50.930;13.334;2023-12-20T08:55:45;5.50;;;2.40;;
27632;SDS011;15046;50.930;13.334;2023-12-20T08:58:11;6.60;;;2.08;;
27632;SDS011;15046;50.930;13.334;2023-12-20T09:00:37;5.65;;;2.13;;
27632;SDS011;15046;50.930;13.334;2023-12-20T09:03:04;12.90;;;3.60;;
27632;SDS011;15046;50.930;13.334;2023-12-20T09:05:30;8.98;;;3.28;;
27632;SDS011;15046;50.930;13.334;2023-12-20T09:07:56;7.07;;;2.50;;
27632;SDS011;15046;50.930;13.334;2023-12-20T09:10:22;4.63;;;2.80;;
27632;SDS011;15046;50.930;13.334;2023-12-20T09:12:49;6.20;;;2.22;;
27632;SDS011;15046;50.930;13.334;2023-12-20T09:15:16;8.43;;;2.78;;
27632;SDS011;15046;50.930;13.334;2023-12-20T09:17:42;7.57;;;2.78;;
27632;SDS011;15046;50.930;13.334;2023-12-20T09:20:09;6.03;;;2.83;;
27632;SDS011;15046;50.930;13.334;2023-12-20T09:22:35;4.95;;;2.20;;
27632;SDS011;15046;50.930;13.334;2023-12-20T09:25:03;4.00;;;2.30;;
27632;SDS011;15046;50.930;13.334;2023-12-20T09:27:30;3.90;;;1.85;;
27632;SDS011;15046;50.930;13.334;2023-12-20T09:29:55;4.78;;;2.03;;
27632;SDS011;15046;50.930;13.334;2023-12-20T09:32:21;8.68;;;2.10;;
27632;SDS011;15046;50.930;13.334;2023-12-20T09:34:47;3.65;;;1.80;;
27632;SDS011;15046;50.930;13.334;2023-12-20T09:37:13;4.97;;;2.08;;
27632;SDS011;15046;50.930;13.334;2023-12-20T09:39:39;3.75;;;1.80;;
27632;SDS011;15046;50.930;13.334;2023-12-20T09:42:05;5.07;;;2.15;;
27632;SDS011;15046;50.930;13.334;2023-12-20T09:44:32;3.65;;;1.70;;
27632;SDS011;15046;50.930;13.334;2023-12-20T09:47:01;2.72;;;1.58;;
27632;SDS011;15046;50.930;13.334;2023-12-20T09:49:29;4.63;;;1.92;;
27632;SDS011;15046;50.930;13.334;2023-12-20T09:51:56;6.72;;;1.73;;
27632;SDS011;15046;50.930;13.334;2023-12-20T09:54:22;5.60;;;1.75;;
27632;SDS011;15046;50.930;13.334;2023-12-20T09:56:49;6.28;;;1.73;;
27632;SDS011;15046;50.930;13.334;2023-12-20T09:59:15;4.57;;;1.88;;
27632;SDS011;15046;50.930;13.334;2023-12-20T10:01:41;4.55;;;1.67;;
27632;SDS011;15046;50.930;13.334;2023-12-20T10:04:08;8.23;;;2.67;;
27632;SDS011;15046;50.930;13.334;2023-12-20T10:06:46;5.85;;;2.05;;
27632;SDS011;15046;50.930;13.334;2023-12-20T10:09:12;3.40;;;1.83;;
27632;SDS011;15046;50.930;13.334;2023-12-20T10:11:39;7.13;;;2.28;;
27632;SDS011;15046;50.930;13.334;2023-12-20T10:14:05;4.78;;;2.10;;
27632;SDS011;15046;50.930;13.334;2023-12-20T10:16:33;6.13;;;2.00;;
27632;SDS011;15046;50.930;13.334;2023-12-20T10:18:59;4.47;;;2.20;;
27632;SDS011;15046;50.930;13.334;2023-12-20T10:23:55;5.57;;;2.38;;
27632;SDS011;15046;50.930;13.334;2023-12-20T10:26:22;5.68;;;1.92;;
27632;SDS011;15046;50.930;13.334;2023-12-20T10:28:55;4.75;;;2.08;;
27632;SDS011;15046;50.930;13.334;2023-12-20T10:34:00;6.38;;;2.38;;
27632;SDS011;15046;50.930;13.334;2023-12-20T10:36:28;3.33;;;2.00;;
27632;SDS011;15046;50.930;13.334;2023-12-20T10:38:56;4.97;;;2.10;;
27632;SDS011;15046;50.930;13.334;2023-12-20T10:41:30;5.57;;;2.20;;
27632;SDS011;15046;50.930;13.334;2023-12-20T10:43:58;4.82;;;2.30;;
27632;SDS011;15046;50.930;13.334;2023-12-20T10:46:28;6.57;;;2.30;;
27632;SDS011;15046;50.930;13.334;2023-12-20T10:48:55;4.55;;;2.22;;
27632;SDS011;15046;50.930;13.334;2023-12-20T10:51:22;5.22;;;1.90;;
27632;SDS011;15046;50.930;13.334;2023-12-20T10:53:51;4.17;;;1.70;;
27632;SDS011;15046;50.930;13.334;2023-12-20T10:56:18;6.70;;;1.98;;
27632;SDS011;15046;50.930;13.334;2023-12-20T10:58:46;4.82;;;2.05;;
27632;SDS011;15046;50.930;13.334;2023-12-20T11:01:14;5.35;;;2.15;;
27632;SDS011;15046;50.930;13.334;2023-12-20T11:03:49;6.43;;;2.00;;
27632;SDS011;15046;50.930;13.334;2023-12-20T11:06:25;6.43;;;2.50;;
27632;SDS011;15046;50.930;13.334;2023-12-20T11:14:31;6.20;;;2.00;;
27632;SDS011;15046;50.930;13.334;2023-12-20T11:17:12;4.68;;;1.75;;
27632;SDS011;15046;50.930;13.334;2023-12-20T11:22:22;6.22;;;2.33;;
27632;SDS011;15046;50.930;13.334;2023-12-20T11:24:52;8.02;;;2.30;;
27632;SDS011;15046;50.930;13.334;2023-12-20T11:27:19;5.72;;;1.80;;
27632;SDS011;15046;50.930;13.334;2023-12-20T11:29:51;6.07;;;2.08;;
27632;SDS011;15046;50.930;13.334;2023-12-20T11:34:53;4.05;;;2.15;;
27632;SDS011;15046;50.930;13.334;2023-12-20T11:37:35;4.85;;;2.25;;
27632;SDS011;15046;50.930;13.334;2023-12-20T11:40:22;5.80;;;2.00;;
27632;SDS011;15046;50.930;13.334;2023-12-20T11:42:48;4.97;;;1.92;;
27632;SDS011;15046;50.930;13.334;2023-12-20T11:45:19;5.40;;;1.90;;
27632;SDS011;15046;50.930;13.334;2023-12-20T11:47:47;8.60;;;2.45;;
27632;SDS011;15046;50.930;13.334;2023-12-20T11:50:21;6.57;;;2.15;;
27632;SDS011;15046;50.930;13.334;2023-12-20T11:52:48;4.97;;;2.50;;
27632;SDS011;15046;50.930;13.334;2023-12-20T11:55:14;4.43;;;1.90;;
27632;SDS011;15046;50.930;13.334;2023-12-20T11:57:40;8.68;;;2.25;;
27632;SDS011;15046;50.930;13.334;2023-12-20T12:00:07;7.63;;;2.53;;
27632;SDS011;15046;50.930;13.334;2023-12-20T12:02:33;5.20;;;2.38;;
27632;SDS011;15046;50.930;13.334;2023-12-20T12:04:59;4.72;;;2.05;;
27632;SDS011;15046;50.930;13.334;2023-12-20T12:07:25;4.32;;;1.70;;
27632;SDS011;15046;50.930;13.334;2023-12-20T12:09:51;6.07;;;1.90;;
27632;SDS011;15046;50.930;13.334;2023-12-20T12:12:19;6.65;;;2.25;;
27632;SDS011;15046;50.930;13.334;2023-12-20T12:14:45;6.85;;;2.15;;
27632;SDS011;15046;50.930;13.334;2023-12-20T12:17:11;6.38;;;2.25;;
27632;SDS011;15046;50.930;13.334;2023-12-20T12:19:41;5.95;;;1.67;;
27632;SDS011;15046;50.930;13.334;2023-12-20T12:22:09;4.43;;;2.00;;
27632;SDS011;15046;50.930;13.334;2023-12-20T12:24:42;4.65;;;1.83;;
27632;SDS011;15046;50.930;13.334;2023-12-20T12:27:09;8.00;;;2.22;;
27632;SDS011;15046;50.930;13.334;2023-12-20T12:29:36;6.35;;;2.30;;
27632;SDS011;15046;50.930;13.334;2023-12-20T12:32:06;9.50;;;2.60;;
27632;SDS011;15046;50.930;13.334;2023-12-20T12:34:36;4.45;;;1.73;;
27632;SDS011;15046;50.930;13.334;2023-12-20T12:37:05;5.93;;;2.20;;
27632;SDS011;15046;50.930;13.334;2023-12-20T12:39:31;6.70;;;2.45;;
27632;SDS011;15046;50.930;13.334;2023-12-20T12:41:58;10.18;;;2.30;;
27632;SDS011;15046;50.930;13.334;2023-12-20T12:44:24;7.13;;;2.03;;
27632;SDS011;15046;50.930;13.334;2023-12-20T12:46:50;4.55;;;1.73;;
27632;SDS011;15046;50.930;13.334;2023-12-20T12:49:21;6.75;;;1.92;;
27632;SDS011;15046;50.930;13.334;2023-12-20T12:51:48;5.72;;;2.20;;
27632;SDS011;15046;50.930;13.334;2023-12-20T12:54:14;4.00;;;1.90;;
27632;SDS011;15046;50.930;13.334;2023-12-20T12:56:42;5.35;;;1.98;;
27632;SDS011;15046;50.930;13.334;2023-12-20T12:59:08;7.78;;;1.92;;
27632;SDS011;15046;50.930;13.334;2023-12-20T13:01:34;5.68;;;1.70;;
27632;SDS011;15046;50.930;13.334;2023-12-20T13:04:00;4.97;;;2.05;;
27632;SDS011;15046;50.930;13.334;2023-12-20T13:06:32;7.97;;;2.55;;
27632;SDS011;15046;50.930;13.334;2023-12-20T13:08:58;5.88;;;2.15;;
27632;SDS011;15046;50.930;13.334;2023-12-20T13:11:23;6.72;;;2.15;;
27632;SDS011;15046;50.930;13.334;2023-12-20T13:13:50;6.05;;;1.85;;
27632;SDS011;15046;50.930;13.334;2023-12-20T13:16:16;6.93;;;2.15;;
27632;SDS011;15046;50.930;13.334;2023-12-20T13:18:42;8.50;;;2.38;;
27632;SDS011;15046;50.930;13.334;2023-12-20T13:21:08;5.53;;;2.15;;
27632;SDS011;15046;50.930;13.334;2023-12-20T13:23:34;5.80;;;1.80;;
27632;SDS011;15046;50.930;13.334;2023-12-20T13:26:01;5.00;;;2.20;;
27632;SDS011;15046;50.930;13.334;2023-12-20T13:28:28;7.75;;;2.58;;
27632;SDS011;15046;50.930;13.334;2023-12-20T13:30:53;4.63;;;1.67;;
27632;SDS011;15046;50.930;13.334;2023-12-20T13:33:19;6.93;;;2.00;;
27632;SDS011;15046;50.930;13.334;2023-12-20T13:35:45;8.32;;;2.00;;
27632;SDS011;15046;50.930;13.334;2023-12-20T13:38:12;4.55;;;1.63;;
27632;SDS011;15046;50.930;13.334;2023-12-20T13:40:38;3.97;;;1.88;;
27632;SDS011;15046;50.930;13.334;2023-12-20T13:43:04;5.38;;;1.90;;
27632;SDS011;15046;50.930;13.334;2023-12-20T13:45:31;4.72;;;2.38;;
27632;SDS011;15046;50.930;13.334;2023-12-20T13:47:57;8.15;;;2.40;;
27632;SDS011;15046;50.930;13.334;2023-12-20T13:50:24;6.70;;;1.90;;
27632;SDS011;15046;50.930;13.334;2023-12-20T13:52:51;3.75;;;1.70;;
27632;SDS011;15046;50.930;13.334;2023-12-20T13:55:17;4.25;;;1.77;;
27632;SDS011;15046;50.930;13.334;2023-12-20T13:57:46;5.10;;;1.58;;
27632;SDS011;15046;50.930;13.334;2023-12-20T14:00:13;4.38;;;1.50;;
27632;SDS011;15046;50.930;13.334;2023-12-20T14:02:40;3.83;;;1.83;;
27632;SDS011;15046;50.930;13.334;2023-12-20T14:05:08;9.32;;;1.95;;
27632;SDS011;15046;50.930;13.334;2023-12-20T14:07:35;4.25;;;1.30;;
27632;SDS011;15046;50.930;13.334;2023-12-20T14:10:02;4.68;;;1.20;;
27632;SDS011;15046;50.930;13.334;2023-12-20T14:12:28;3.15;;;1.50;;
27632;SDS011;15046;50.930;13.334;2023-12-20T14:14:54;4.22;;;1.40;;
27632;SDS011;15046;50.930;13.334;2023-12-20T14:17:21;4.25;;;1.65;;
27632;SDS011;15046;50.930;13.334;2023-12-20T14:19:47;4.40;;;1.52;;
27632;SDS011;15046;50.930;13.334;2023-12-20T14:22:13;5.40;;;1.98;;
27632;SDS011;15046;50.930;13.334;2023-12-20T14:24:42;8.88;;;1.42;;
27632;SDS011;15046;50.930;13.334;2023-12-20T14:27:08;4.38;;;1.55;;
27632;SDS011;15046;50.930;13.334;2023-12-20T14:29:34;3.65;;;1.50;;
27632;SDS011;15046;50.930;13.334;2023-12-20T14:32:01;4.35;;;1.15;;
27632;SDS011;15046;50.930;13.334;2023-12-20T14:34:28;4.20;;;1.60;;
27632;SDS011;15046;50.930;13.334;2023-12-20T14:36:55;7.65;;;1.70;;
27632;SDS011;15046;50.930;13.334;2023-12-20T14:39:20;5.28;;;1.55;;
27632;SDS011;15046;50.930;13.334;2023-12-20T14:41:48;5.03;;;1.73;;
27632;SDS011;15046;50.930;13.334;2023-12-20T14:44:13;5.13;;;1.80;;
27632;SDS011;15046;50.930;13.334;2023-12-20T14:46:41;4.90;;;1.58;;